createdAt,value
2018-08-17T00:01:13.870Z,18.32
2018-08-17T00:03:43.046Z,18.38
2018-08-17T00:06:12.358Z,18.44
2018-08-17T00:08:41.693Z,18.34
2018-08-17T00:11:10.911Z,18.52
2018-08-17T00:13:40.150Z,18.51
2018-08-17T00:16:09.246Z,18.35
2018-08-17T00:18:38.346Z,18.25
2018-08-17T00:21:07.870Z,18.16
2018-08-17T00:23:36.978Z,18.11
2018-08-17T00:26:06.454Z,17.96
2018-08-17T00:28:35.578Z,17.79
2018-08-17T00:31:04.674Z,17.71
2018-08-17T00:33:33.770Z,17.63
2018-08-17T00:36:02.907Z,17.63
2018-08-17T00:38:32.739Z,17.55
2018-08-17T00:41:01.830Z,17.43
2018-08-17T00:43:30.931Z,17.46
2018-08-17T00:46:00.042Z,17.37
2018-08-17T00:48:29.154Z,17.42
2018-08-17T00:50:58.238Z,17.37
2018-08-17T00:53:28.040Z,17.36
2018-08-17T00:55:57.435Z,17.38
2018-08-17T00:58:26.565Z,17.33
2018-08-17T01:00:55.721Z,17.26
2018-08-17T01:03:24.822Z,17.18
2018-08-17T01:05:54.643Z,17.11
2018-08-17T01:08:23.782Z,17.12
2018-08-17T01:10:52.915Z,17.08
2018-08-17T01:13:22.022Z,17.14
2018-08-17T01:15:51.169Z,17.16
2018-08-17T01:18:20.302Z,17.11
2018-08-17T01:20:49.406Z,17.05
2018-08-17T01:23:18.575Z,17.09
2018-08-17T01:25:47.686Z,17.16
2018-08-17T01:28:16.792Z,17.03
2018-08-17T01:30:45.939Z,16.87
2018-08-17T01:33:15.082Z,16.88
2018-08-17T01:35:44.203Z,16.86
2018-08-17T01:38:13.382Z,16.96
2018-08-17T01:40:42.462Z,16.87
2018-08-17T01:43:11.566Z,16.80
2018-08-17T01:45:40.730Z,16.84
2018-08-17T01:48:09.846Z,16.88
2018-08-17T01:50:38.946Z,16.74
2018-08-17T01:53:08.102Z,16.72
2018-08-17T01:55:37.362Z,16.64
2018-08-17T01:58:06.723Z,16.69
2018-08-17T02:00:36.202Z,16.68
2018-08-17T02:03:05.299Z,16.41
2018-08-17T02:05:34.389Z,16.28
2018-08-17T02:08:03.522Z,16.38
2018-08-17T02:10:32.779Z,16.46
2018-08-17T02:13:01.871Z,16.45
2018-08-17T02:15:30.997Z,16.47
2018-08-17T02:18:00.090Z,16.45
2018-08-17T02:20:29.206Z,16.31
2018-08-17T02:22:58.316Z,16.19
2018-08-17T02:25:28.162Z,16.12
2018-08-17T02:27:57.305Z,16.08
2018-08-17T02:30:26.455Z,16.14
2018-08-17T02:32:57.055Z,16.21
2018-08-17T02:35:26.590Z,16.25
2018-08-17T02:37:56.236Z,16.27
2018-08-17T02:40:25.603Z,16.24
2018-08-17T02:42:54.894Z,16.25
2018-08-17T02:45:24.710Z,16.20
2018-08-17T02:47:54.986Z,16.23
2018-08-17T02:50:24.186Z,16.18
2018-08-17T02:52:53.310Z,16.14
2018-08-17T02:55:22.401Z,16.01
2018-08-17T02:57:51.785Z,15.94
2018-08-17T03:00:20.889Z,15.86
2018-08-17T03:02:49.986Z,15.91
2018-08-17T03:05:19.111Z,16.00
2018-08-17T03:07:48.233Z,15.94
2018-08-17T03:10:17.333Z,15.79
2018-08-17T03:12:47.149Z,15.79
2018-08-17T03:15:16.274Z,15.78
2018-08-17T03:17:45.401Z,15.78
2018-08-17T03:20:14.711Z,15.71
2018-08-17T03:22:44.248Z,15.75
2018-08-17T03:25:13.486Z,15.62
2018-08-17T03:27:43.173Z,15.58
2018-08-17T03:30:12.289Z,15.60
2018-08-17T03:32:41.461Z,15.56
2018-08-17T03:35:10.773Z,15.69
2018-08-17T03:37:39.881Z,15.71
2018-08-17T03:40:09.123Z,15.67
2018-08-17T03:42:38.255Z,15.60
2018-08-17T03:45:07.522Z,15.48
2018-08-17T03:47:36.654Z,15.57
2018-08-17T03:50:06.777Z,15.59
2018-08-17T03:52:35.954Z,15.69
2018-08-17T03:55:05.169Z,15.72
2018-08-17T03:57:34.341Z,15.70
2018-08-17T04:00:03.518Z,15.64
2018-08-17T04:02:32.702Z,15.69
2018-08-17T04:05:01.858Z,15.66
2018-08-17T04:07:31.786Z,15.75
2018-08-17T04:10:00.906Z,15.96
2018-08-17T04:12:30.051Z,15.87
2018-08-17T04:14:59.321Z,15.73
2018-08-17T04:17:28.610Z,15.72
2018-08-17T04:19:58.211Z,15.61
2018-08-17T04:22:27.461Z,15.56
2018-08-17T04:24:56.767Z,15.56
2018-08-17T04:27:26.050Z,15.83
2018-08-17T04:29:55.557Z,15.93
2018-08-17T04:32:25.469Z,15.97
2018-08-17T04:34:55.297Z,16.09
2018-08-17T04:37:24.527Z,16.04
2018-08-17T04:39:53.738Z,16.08
2018-08-17T04:42:22.957Z,16.21
2018-08-17T04:44:52.770Z,16.37
2018-08-17T04:47:22.467Z,16.19
2018-08-17T04:49:52.167Z,16.12
2018-08-17T04:52:21.366Z,16.05
2018-08-17T04:54:50.497Z,16.04
2018-08-17T04:57:19.606Z,16.11
2018-08-17T04:59:48.979Z,16.09
2018-08-17T05:02:18.098Z,16.13
2018-08-17T05:04:47.921Z,16.53
2018-08-17T05:07:17.366Z,16.75
2018-08-17T05:09:46.521Z,16.91
2018-08-17T05:12:15.676Z,17.13
2018-08-17T05:14:44.942Z,17.39
2018-08-17T05:17:14.149Z,17.79
2018-08-17T05:19:43.467Z,18.11
2018-08-17T05:22:12.681Z,18.15
2018-08-17T05:24:43.469Z,18.13
2018-08-17T05:27:13.201Z,18.22
2018-08-17T05:29:42.537Z,18.24
2018-08-17T05:32:11.640Z,18.67
2018-08-17T05:34:40.865Z,19.05
2018-08-17T05:37:09.975Z,20.24
2018-08-17T05:39:39.097Z,20.89
2018-08-17T05:42:08.321Z,22.29
2018-08-17T05:44:37.481Z,22.26
2018-08-17T05:47:07.066Z,22.82
2018-08-17T05:49:37.086Z,23.47
2018-08-17T05:52:06.189Z,23.73
2018-08-17T05:54:35.484Z,24.33
2018-08-17T05:57:05.144Z,24.39
2018-08-17T05:59:35.038Z,24.19
2018-08-17T06:02:04.175Z,24.31
2018-08-17T06:04:33.298Z,24.80
2018-08-17T06:07:02.481Z,25.09
2018-08-17T06:09:31.602Z,25.65
2018-08-17T06:12:01.329Z,26.58
2018-08-17T06:14:31.042Z,27.22
2018-08-17T06:17:00.222Z,28.02
2018-08-17T06:19:29.682Z,27.96
2018-08-17T06:21:59.105Z,26.76
2018-08-17T06:24:28.248Z,24.94
2018-08-17T06:26:57.431Z,24.79
2018-08-17T06:29:26.530Z,24.57
2018-08-17T06:31:55.734Z,24.34
2018-08-17T06:34:25.010Z,23.66
2018-08-17T06:36:54.166Z,22.71
2018-08-17T06:39:23.284Z,22.83
2018-08-17T06:41:52.373Z,22.83
2018-08-17T06:44:21.714Z,22.90
2018-08-17T06:46:51.497Z,23.00
2018-08-17T06:49:20.598Z,23.48
2018-08-17T06:51:49.747Z,24.91
2018-08-17T06:54:18.865Z,25.81
2018-08-17T06:56:48.215Z,26.61
2018-08-17T06:59:18.109Z,27.55
2018-08-17T07:01:47.238Z,27.46
2018-08-17T07:04:16.618Z,27.37
2018-08-17T07:06:46.162Z,28.81
2018-08-17T07:09:16.429Z,29.54
2018-08-17T07:11:46.312Z,29.99
2018-08-17T07:14:15.450Z,30.50
2018-08-17T07:16:44.671Z,30.70
2018-08-17T07:19:14.098Z,31.19
2018-08-17T07:21:43.564Z,30.81
2018-08-17T07:24:13.127Z,30.94
2018-08-17T07:26:42.261Z,31.92
2018-08-17T07:29:11.433Z,32.19
2018-08-17T07:31:40.557Z,31.96
2018-08-17T07:34:09.702Z,31.36
2018-08-17T07:36:38.814Z,31.83
2018-08-17T07:39:08.916Z,32.32
2018-08-17T07:41:38.614Z,32.51
2018-08-17T07:44:07.688Z,32.49
2018-08-17T07:46:36.862Z,32.71
2018-08-17T07:49:06.045Z,33.46
2018-08-17T07:51:35.174Z,34.23
2018-08-17T07:54:04.281Z,33.96
2018-08-17T07:56:33.427Z,32.97
2018-08-17T07:59:02.653Z,33.48
2018-08-17T08:01:32.199Z,33.18
2018-08-17T08:04:01.720Z,33.23
2018-08-17T08:06:30.843Z,32.91
2018-08-17T08:08:59.942Z,33.59
2018-08-17T08:11:30.854Z,35.13
2018-08-17T08:14:01.078Z,35.05
2018-08-17T08:16:30.771Z,34.39
2018-08-17T08:19:00.203Z,33.15
2018-08-17T08:21:29.588Z,32.11
2018-08-17T08:23:58.729Z,31.68
2018-08-17T08:26:28.330Z,30.88
2018-08-17T08:28:57.489Z,30.70
2018-08-17T08:31:27.706Z,31.21
2018-08-17T08:33:56.882Z,32.68
2018-08-17T08:36:26.889Z,34.54
2018-08-17T08:38:56.003Z,36.16
2018-08-17T08:41:25.888Z,37.32
2018-08-17T08:43:55.062Z,37.11
2018-08-17T08:46:24.194Z,37.51
2018-08-17T08:48:54.074Z,38.37
2018-08-17T08:51:23.169Z,39.72
2018-08-17T08:53:52.925Z,41.20
2018-08-17T08:56:22.330Z,41.36
2018-08-17T08:58:51.422Z,42.04
2018-08-17T09:01:20.531Z,42.14
2018-08-17T09:03:49.659Z,40.99
2018-08-17T09:06:18.753Z,38.87
2018-08-17T09:08:47.926Z,39.46
2018-08-17T09:11:17.075Z,38.82
2018-08-17T09:13:46.244Z,41.74
2018-08-17T09:16:15.366Z,42.82
2018-08-17T09:18:45.245Z,41.75
2018-08-17T09:21:14.362Z,42.50
2018-08-17T09:23:43.991Z,42.70
2018-08-17T09:26:13.130Z,42.82
2018-08-17T09:28:42.558Z,42.51
2018-08-17T09:31:11.729Z,43.12
2018-08-17T09:33:40.829Z,42.35
2018-08-17T09:36:10.114Z,43.24
2018-08-17T09:38:39.796Z,43.87
2018-08-17T09:41:09.065Z,40.98
2018-08-17T09:43:39.110Z,39.58
2018-08-17T09:46:08.446Z,37.04
2018-08-17T09:48:38.349Z,37.61
2018-08-17T09:51:07.602Z,38.40
2018-08-17T09:53:37.361Z,39.40
2018-08-17T09:56:07.465Z,37.47
2018-08-17T09:58:36.605Z,36.85
2018-08-17T10:01:11.061Z,36.56
2018-08-17T10:03:43.611Z,37.53
2018-08-17T10:06:17.829Z,39.10
2018-08-17T10:08:52.862Z,40.43
2018-08-17T10:11:21.994Z,39.46
2018-08-17T10:13:51.474Z,36.40
2018-08-17T10:16:20.619Z,35.98
2018-08-17T10:18:49.729Z,35.92
2018-08-17T10:21:19.139Z,35.94
2018-08-17T10:23:48.889Z,36.02
2018-08-17T10:26:18.019Z,35.75
2018-08-17T10:28:47.169Z,36.84
2018-08-17T10:31:18.926Z,37.83
2018-08-17T10:33:48.715Z,38.86
2018-08-17T10:36:18.104Z,39.65
2018-08-17T10:38:47.333Z,39.26
2018-08-17T10:41:16.502Z,39.54
2018-08-17T10:43:47.185Z,40.13
2018-08-17T10:46:16.390Z,40.90
2018-08-17T10:48:46.381Z,40.89
2018-08-17T10:51:15.464Z,40.00
2018-08-17T10:53:47.359Z,40.22
2018-08-17T10:56:16.597Z,40.19
2018-08-17T10:58:45.731Z,39.61
2018-08-17T11:01:15.385Z,40.81
2018-08-17T11:03:44.991Z,38.73
2018-08-17T11:06:14.805Z,36.13
2018-08-17T11:08:43.975Z,36.47
2018-08-17T11:11:13.506Z,37.78
2018-08-17T11:13:42.746Z,35.05
2018-08-17T11:16:11.859Z,31.99
2018-08-17T11:18:41.089Z,30.96
2018-08-17T11:21:10.791Z,30.59
2018-08-17T11:23:40.086Z,30.82
2018-08-17T11:26:09.289Z,30.88
2018-08-17T11:28:38.398Z,30.99
2018-08-17T11:31:07.511Z,31.27
2018-08-17T11:33:36.670Z,31.11
2018-08-17T11:36:05.822Z,30.67
2018-08-17T11:38:35.337Z,31.29
2018-08-17T11:41:04.833Z,31.69
2018-08-17T11:43:33.956Z,31.82
2018-08-17T11:46:03.074Z,32.74
2018-08-17T11:48:35.162Z,32.34
2018-08-17T11:51:04.580Z,32.09
2018-08-17T11:53:34.505Z,31.73
2018-08-17T11:56:03.605Z,31.24
2018-08-17T11:58:33.516Z,31.37
2018-08-17T12:01:07.296Z,31.50
2018-08-17T12:03:36.417Z,31.57
2018-08-17T12:06:05.558Z,31.47
2018-08-17T12:08:35.777Z,31.54
2018-08-17T12:11:07.149Z,31.47
2018-08-17T12:13:39.936Z,31.77
2018-08-17T12:16:12.454Z,31.76
2018-08-17T12:18:41.732Z,31.45
2018-08-17T12:21:11.026Z,31.34
2018-08-17T12:23:40.305Z,31.33
2018-08-17T12:26:09.546Z,31.92
2018-08-17T12:28:38.701Z,32.13
2018-08-17T12:31:07.884Z,31.83
2018-08-17T12:33:37.089Z,32.73
2018-08-17T12:36:06.293Z,33.86
2018-08-17T12:38:35.431Z,35.85
2018-08-17T12:41:04.630Z,35.63
2018-08-17T12:43:35.633Z,34.98
2018-08-17T12:46:05.429Z,34.40
2018-08-17T12:48:35.759Z,36.36
2018-08-17T12:51:07.042Z,33.87
2018-08-17T12:53:36.866Z,34.70
2018-08-17T12:56:06.037Z,35.81
2018-08-17T12:58:35.162Z,37.31
2018-08-17T13:01:04.422Z,34.54
2018-08-17T13:03:33.583Z,33.79
2018-08-17T13:06:02.719Z,33.17
2018-08-17T13:08:32.406Z,34.55
2018-08-17T13:11:02.162Z,35.73
2018-08-17T13:13:31.273Z,34.69
2018-08-17T13:16:05.614Z,34.29
2018-08-17T13:18:37.074Z,34.85
2018-08-17T13:21:08.027Z,34.58
2018-08-17T13:23:37.146Z,34.40
2018-08-17T13:26:06.330Z,33.48
2018-08-17T13:28:36.122Z,33.37
2018-08-17T13:31:05.274Z,33.28
2018-08-17T13:33:34.411Z,33.66
2018-08-17T13:36:04.347Z,33.19
2018-08-17T13:38:33.918Z,32.82
2018-08-17T13:41:03.037Z,32.60
2018-08-17T13:43:32.178Z,32.38
2018-08-17T13:46:01.670Z,32.38
2018-08-17T13:48:30.890Z,32.85
2018-08-17T13:51:00.263Z,32.78
2018-08-17T13:53:29.865Z,32.98
2018-08-17T13:55:59.817Z,32.99
2018-08-17T13:58:30.121Z,33.47
2018-08-17T14:00:59.548Z,33.67
2018-08-17T14:03:28.965Z,33.74
2018-08-17T14:05:58.226Z,34.19
2018-08-17T14:08:27.734Z,35.17
2018-08-17T14:10:57.698Z,36.10
2018-08-17T14:13:27.883Z,38.11
2018-08-17T14:15:57.004Z,37.89
2018-08-17T14:18:26.566Z,41.21
2018-08-17T14:20:55.717Z,41.45
2018-08-17T14:23:24.837Z,40.70
2018-08-17T14:25:53.954Z,39.92
2018-08-17T14:28:23.098Z,38.79
2018-08-17T14:30:52.253Z,35.60
2018-08-17T14:33:21.406Z,34.16
2018-08-17T14:35:50.521Z,34.64
2018-08-17T14:38:30.916Z,34.66
2018-08-17T14:41:00.358Z,34.44
2018-08-17T14:43:29.483Z,34.92
2018-08-17T14:45:58.625Z,34.58
2018-08-17T14:48:27.785Z,33.66
2018-08-17T14:50:57.514Z,32.13
2018-08-17T14:53:27.129Z,31.62
2018-08-17T14:55:56.401Z,30.81
2018-08-17T14:58:25.626Z,30.90
2018-08-17T15:00:55.047Z,31.24
2018-08-17T15:03:24.153Z,31.22
2018-08-17T15:05:53.269Z,31.24
2018-08-17T15:08:23.006Z,31.58
2018-08-17T15:10:52.192Z,30.45
2018-08-17T15:13:21.349Z,30.14
2018-08-17T15:15:50.480Z,29.89
2018-08-17T15:18:19.597Z,30.50
2018-08-17T15:20:48.732Z,30.04
2018-08-17T15:23:17.858Z,30.04
2018-08-17T15:25:47.015Z,29.39
2018-08-17T15:28:16.110Z,29.30
2018-08-17T15:30:45.466Z,29.58
2018-08-17T15:33:14.569Z,29.69
2018-08-17T15:35:43.674Z,30.27
2018-08-17T15:38:12.822Z,30.26
2018-08-17T15:40:42.019Z,30.73
2018-08-17T15:43:17.233Z,30.94
2018-08-17T15:45:47.738Z,31.04
2018-08-17T15:48:17.531Z,31.21
2018-08-17T15:50:47.346Z,31.46
2018-08-17T15:53:16.465Z,31.53
2018-08-17T15:55:45.628Z,31.22
2018-08-17T15:58:14.834Z,30.83
2018-08-17T16:00:44.158Z,29.91
2018-08-17T16:03:13.381Z,28.96
2018-08-17T16:05:42.946Z,27.80
2018-08-17T16:08:12.083Z,27.52
2018-08-17T16:10:41.237Z,27.07
2018-08-17T16:13:10.794Z,26.98
2018-08-17T16:15:41.247Z,26.98
2018-08-17T16:18:10.975Z,27.15
2018-08-17T16:20:40.118Z,27.09
2018-08-17T16:23:09.242Z,27.09
2018-08-17T16:25:38.371Z,27.34
2018-08-17T16:28:07.548Z,27.56
2018-08-17T16:30:37.018Z,27.81
2018-08-17T16:33:06.133Z,27.48
2018-08-17T16:35:35.554Z,27.50
2018-08-17T16:38:04.838Z,27.52
2018-08-17T16:40:38.313Z,27.69
2018-08-17T16:43:07.462Z,27.59
2018-08-17T16:45:37.190Z,27.78
2018-08-17T16:48:07.165Z,27.87
2018-08-17T16:50:36.305Z,27.84
2018-08-17T16:53:05.435Z,27.81
2018-08-17T16:55:35.041Z,27.81
2018-08-17T16:58:04.318Z,27.43
2018-08-17T17:00:33.119Z,27.07
2018-08-17T17:03:02.202Z,27.10
2018-08-17T17:05:31.306Z,27.25
2018-08-17T17:08:00.440Z,27.22
2018-08-17T17:10:31.158Z,27.24
2018-08-17T17:13:00.301Z,27.07
2018-08-17T17:15:29.458Z,26.99
2018-08-17T17:18:05.864Z,26.69
2018-08-17T17:20:36.521Z,26.67
2018-08-17T17:23:07.293Z,26.60
2018-08-17T17:25:36.981Z,26.44
2018-08-17T17:28:06.877Z,26.39
2018-08-17T17:30:43.934Z,26.27
2018-08-17T17:33:13.125Z,26.10
2018-08-17T17:35:43.054Z,26.01
2018-08-17T17:38:12.766Z,25.93
2018-08-17T17:40:42.274Z,25.84
2018-08-17T17:43:11.502Z,25.79
2018-08-17T17:45:40.997Z,25.62
2018-08-17T17:48:10.701Z,25.32
2018-08-17T17:50:39.907Z,25.28
2018-08-17T17:53:09.033Z,25.23
2018-08-17T17:55:44.171Z,24.93
2018-08-17T17:58:13.585Z,24.72
2018-08-17T18:00:51.266Z,24.70
2018-08-17T18:03:20.906Z,24.66
2018-08-17T18:05:50.053Z,24.40
2018-08-17T18:08:19.667Z,24.21
2018-08-17T18:10:50.093Z,24.19
2018-08-17T18:13:19.674Z,24.14
2018-08-17T18:15:48.839Z,24.10
2018-08-17T18:18:17.970Z,24.07
2018-08-17T18:20:47.104Z,24.07
2018-08-17T18:23:16.266Z,24.02
2018-08-17T18:25:45.470Z,23.95
2018-08-17T18:28:15.200Z,23.90
2018-08-17T18:30:44.396Z,23.84
2018-08-17T18:33:13.510Z,23.83
2018-08-17T18:35:42.662Z,23.73
2018-08-17T18:38:11.776Z,23.63
2018-08-17T18:40:40.877Z,23.67
2018-08-17T18:43:10.465Z,23.63
2018-08-17T18:45:39.626Z,23.61
2018-08-17T18:48:08.801Z,23.55
2018-08-17T18:50:37.931Z,23.46
2018-08-17T18:53:07.041Z,23.21
2018-08-17T18:55:36.177Z,23.06
2018-08-17T18:58:05.329Z,23.00
2018-08-17T19:00:35.195Z,23.01
2018-08-17T19:03:04.498Z,22.95
2018-08-17T19:05:33.837Z,22.87
2018-08-17T19:08:02.961Z,23.14
2018-08-17T19:10:32.242Z,23.29
2018-08-17T19:13:01.242Z,23.59
2018-08-17T19:15:34.219Z,23.66
2018-08-17T19:18:03.370Z,23.74
2018-08-17T19:20:32.513Z,23.82
2018-08-17T19:23:01.687Z,23.96
2018-08-17T19:25:31.198Z,23.98
2018-08-17T19:28:00.325Z,24.01
2018-08-17T19:30:33.355Z,24.04
2018-08-17T19:33:08.654Z,24.03
2018-08-17T19:35:40.635Z,24.00
2018-08-17T19:38:09.929Z,23.94
2018-08-17T19:40:39.200Z,23.89
2018-08-17T19:43:08.314Z,23.81
2018-08-17T19:45:37.529Z,23.77
2018-08-17T19:48:06.705Z,23.78
2018-08-17T19:50:35.817Z,23.79
2018-08-17T19:53:04.976Z,23.71
2018-08-17T19:55:34.147Z,23.68
2018-08-17T19:58:03.284Z,23.66
2018-08-17T20:00:32.422Z,23.65
2018-08-17T20:03:01.562Z,23.64
2018-08-17T20:05:30.729Z,23.59
2018-08-17T20:08:00.484Z,23.56
2018-08-17T20:10:29.601Z,23.49
2018-08-17T20:12:58.875Z,23.50
2018-08-17T20:15:27.997Z,23.35
2018-08-17T20:17:57.126Z,23.32
2018-08-17T20:20:26.257Z,23.31
2018-08-17T20:23:00.535Z,23.30
2018-08-17T20:25:29.710Z,23.14
2018-08-17T20:27:59.077Z,23.08
2018-08-17T20:30:28.173Z,23.09
2018-08-17T20:32:57.362Z,23.07
2018-08-17T20:35:26.485Z,23.01
2018-08-17T20:37:55.637Z,22.91
2018-08-17T20:40:25.155Z,22.87
2018-08-17T20:42:54.324Z,22.83
2018-08-17T20:45:27.003Z,22.77
2018-08-17T20:47:56.593Z,22.76
2018-08-17T20:50:25.781Z,22.78
2018-08-17T20:52:59.173Z,22.84
2018-08-17T20:55:28.421Z,22.83
2018-08-17T20:57:58.459Z,22.82
2018-08-17T21:00:29.717Z,22.86
2018-08-17T21:02:58.926Z,22.81
2018-08-17T21:05:28.297Z,22.82
2018-08-17T21:07:57.418Z,22.78
2018-08-17T21:10:26.646Z,22.72
2018-08-17T21:12:56.016Z,22.63
2018-08-17T21:15:25.418Z,22.61
2018-08-17T21:17:54.677Z,22.58
2018-08-17T21:20:24.822Z,22.57
2018-08-17T21:22:54.402Z,22.56
2018-08-17T21:25:23.601Z,22.08
2018-08-17T21:27:53.334Z,20.85
2018-08-17T21:30:22.565Z,19.84
2018-08-17T21:32:52.186Z,19.24
2018-08-17T21:35:21.586Z,18.93
2018-08-17T21:37:50.907Z,18.64
2018-08-17T21:40:34.470Z,18.48
2018-08-17T21:43:03.603Z,18.51
2018-08-17T21:45:32.765Z,18.50
2018-08-17T21:48:02.514Z,18.50
2018-08-17T21:50:31.759Z,18.30
2018-08-17T21:53:00.946Z,18.28
2018-08-17T21:55:30.145Z,18.22
2018-08-17T21:57:59.293Z,18.30
2018-08-17T22:00:32.981Z,18.36
2018-08-17T22:03:03.622Z,18.28
2018-08-17T22:05:34.233Z,18.15
2018-08-17T22:08:03.408Z,18.09
2018-08-17T22:10:32.766Z,18.06
2018-08-17T22:13:02.074Z,18.00
2018-08-17T22:15:31.849Z,17.99
2018-08-17T22:18:01.148Z,17.94
2018-08-17T22:20:30.282Z,17.93
2018-08-17T22:22:59.701Z,17.90
2018-08-17T22:25:28.832Z,17.87
2018-08-17T22:27:57.995Z,17.82
2018-08-17T22:30:27.505Z,17.77
2018-08-17T22:32:56.702Z,17.71
2018-08-17T22:35:25.899Z,17.72
2018-08-17T22:37:55.029Z,17.64
2018-08-17T22:40:24.185Z,17.61
2018-08-17T22:42:53.313Z,17.60
2018-08-17T22:45:22.459Z,17.53
2018-08-17T22:47:51.674Z,17.50
2018-08-17T22:50:20.840Z,17.51
2018-08-17T22:52:50.057Z,17.52
2018-08-17T22:55:19.197Z,17.49
2018-08-17T22:57:48.384Z,17.52
2018-08-17T23:00:22.789Z,17.51
2018-08-17T23:02:53.483Z,17.51
2018-08-17T23:05:24.407Z,17.57
2018-08-17T23:07:54.196Z,17.55
2018-08-17T23:10:24.429Z,17.61
2018-08-17T23:12:54.411Z,17.59
2018-08-17T23:15:23.614Z,17.58
2018-08-17T23:17:55.006Z,17.60
2018-08-17T23:20:29.562Z,17.60
2018-08-17T23:23:00.182Z,17.60
2018-08-17T23:25:30.102Z,17.60
2018-08-17T23:27:59.398Z,17.69
2018-08-17T23:30:29.187Z,17.69
2018-08-17T23:32:58.743Z,17.70
2018-08-17T23:35:27.869Z,17.70
2018-08-17T23:37:57.086Z,17.65
2018-08-17T23:40:26.262Z,17.65
2018-08-17T23:42:55.402Z,17.70
2018-08-17T23:45:25.336Z,17.68
2018-08-17T23:47:54.488Z,17.69
2018-08-17T23:50:23.609Z,17.77
2018-08-17T23:52:52.760Z,17.77
2018-08-17T23:55:21.984Z,17.72
2018-08-17T23:57:51.112Z,17.76
